createdAt,value
2018-04-17T00:00:52.169Z,7.40
2018-04-17T00:03:20.429Z,7.40
2018-04-17T00:05:48.702Z,6.60
2018-04-17T00:08:17.383Z,6.83
2018-04-17T00:10:45.615Z,6.20
2018-04-17T00:13:13.821Z,7.00
2018-04-17T00:15:42.512Z,6.40
2018-04-17T00:18:10.743Z,6.63
2018-04-17T00:20:39.050Z,6.53
2018-04-17T00:23:07.565Z,6.63
2018-04-17T00:25:35.757Z,6.60
2018-04-17T00:28:04.060Z,7.53
2018-04-17T00:30:32.724Z,7.97
2018-04-17T00:33:00.922Z,5.97
2018-04-17T00:35:29.281Z,6.37
2018-04-17T00:37:57.949Z,6.93
2018-04-17T00:40:26.140Z,6.10
2018-04-17T00:42:54.343Z,6.80
2018-04-17T00:45:23.085Z,7.30
2018-04-17T00:47:51.358Z,6.93
2018-04-17T00:50:19.653Z,7.03
2018-04-17T00:52:48.203Z,6.43
2018-04-17T00:55:16.403Z,7.83
2018-04-17T00:57:44.712Z,7.07
2018-04-17T01:00:13.607Z,7.03
2018-04-17T01:02:41.835Z,7.10
2018-04-17T01:05:10.038Z,7.27
2018-04-17T01:07:38.576Z,7.13
2018-04-17T01:10:06.869Z,7.80
2018-04-17T01:12:35.067Z,7.67
2018-04-17T01:15:03.610Z,6.90
2018-04-17T01:17:32.201Z,8.03
2018-04-17T01:20:00.413Z,6.60
2018-04-17T01:22:29.209Z,7.30
2018-04-17T01:24:57.454Z,6.80
2018-04-17T01:27:25.675Z,6.87
2018-04-17T01:29:54.402Z,6.63
2018-04-17T01:32:22.608Z,7.27
2018-04-17T01:34:50.803Z,7.93
2018-04-17T01:37:19.502Z,7.77
2018-04-17T01:39:47.717Z,7.23
2018-04-17T01:42:15.928Z,8.23
2018-04-17T01:44:44.692Z,7.60
2018-04-17T01:47:12.912Z,7.93
2018-04-17T01:49:41.122Z,7.80
2018-04-17T01:52:09.717Z,8.13
2018-04-17T01:54:38.070Z,7.67
2018-04-17T01:57:06.267Z,7.90
2018-04-17T01:59:34.908Z,8.43
2018-04-17T02:02:03.144Z,8.07
2018-04-17T02:04:31.338Z,8.97
2018-04-17T02:07:00.080Z,8.47
2018-04-17T02:09:28.300Z,8.33
2018-04-17T02:11:56.516Z,8.43
2018-04-17T02:14:25.315Z,9.30
2018-04-17T02:16:53.544Z,8.77
2018-04-17T02:19:21.872Z,9.43
2018-04-17T02:21:50.772Z,9.70
2018-04-17T02:24:19.442Z,9.80
2018-04-17T02:26:47.681Z,9.00
2018-04-17T02:29:15.903Z,9.23
2018-04-17T02:31:44.606Z,8.47
2018-04-17T02:34:12.807Z,9.57
2018-04-17T02:36:41.019Z,9.20
2018-04-17T02:39:09.811Z,8.90
2018-04-17T02:41:38.030Z,9.97
2018-04-17T02:44:06.303Z,8.90
2018-04-17T02:46:34.755Z,10.37
2018-04-17T02:49:02.973Z,9.40
2018-04-17T02:51:31.305Z,9.20
2018-04-17T02:53:59.971Z,9.87
2018-04-17T02:56:28.167Z,9.30
2018-04-17T02:58:56.449Z,8.37
2018-04-17T03:01:25.261Z,10.27
2018-04-17T03:03:53.604Z,9.37
2018-04-17T03:06:22.500Z,9.23
2018-04-17T03:08:51.005Z,9.77
2018-04-17T03:11:19.231Z,10.63
2018-04-17T03:13:47.480Z,10.63
2018-04-17T03:16:15.980Z,10.07
2018-04-17T03:18:44.230Z,10.40
2018-04-17T03:21:12.527Z,10.87
2018-04-17T03:23:41.104Z,9.93
2018-04-17T03:26:09.410Z,10.50
2018-04-17T03:28:37.635Z,10.60
2018-04-17T03:31:06.720Z,10.47
2018-04-17T03:33:34.956Z,11.30
2018-04-17T03:36:03.162Z,10.97
2018-04-17T03:38:31.676Z,11.20
2018-04-17T03:43:34.233Z,12.60
2018-04-17T03:46:02.839Z,11.67
2018-04-17T03:48:31.382Z,11.30
2018-04-17T03:50:59.591Z,11.67
2018-04-17T03:53:27.873Z,11.63
2018-04-17T03:55:56.772Z,12.10
2018-04-17T03:58:25.285Z,12.23
2018-04-17T04:00:53.498Z,12.73
2018-04-17T04:03:22.104Z,11.83
2018-04-17T04:05:50.352Z,11.77
2018-04-17T04:08:18.581Z,12.93
2018-04-17T04:11:12.925Z,10.77
2018-04-17T04:13:47.631Z,12.13
2018-04-17T04:16:28.104Z,13.00
2018-04-17T04:19:08.262Z,12.23
2018-04-17T04:21:48.311Z,13.53
2018-04-17T04:24:28.385Z,11.20
2018-04-17T04:26:57.180Z,11.70
2018-04-17T04:29:26.634Z,11.37
2018-04-17T04:31:54.852Z,11.80
2018-04-17T04:34:23.703Z,11.73
2018-04-17T04:36:52.152Z,11.90
2018-04-17T04:41:54.889Z,10.47
2018-04-17T04:44:23.102Z,11.23
2018-04-17T04:46:51.694Z,11.20
2018-04-17T04:49:19.902Z,10.80
2018-04-17T04:51:48.631Z,11.10
2018-04-17T04:54:17.415Z,11.50
2018-04-17T04:56:45.620Z,10.93
2018-04-17T04:59:13.863Z,11.33
2018-04-17T05:01:42.521Z,11.60
2018-04-17T05:04:11.816Z,11.10
2018-04-17T05:06:40.039Z,12.90
2018-04-17T05:09:08.832Z,11.67
2018-04-17T05:11:37.133Z,11.57
2018-04-17T05:14:05.328Z,11.20
2018-04-17T05:16:33.843Z,10.23
2018-04-17T05:19:02.162Z,10.43
2018-04-17T05:21:30.448Z,11.53
2018-04-17T05:23:59.292Z,10.83
2018-04-17T05:26:28.052Z,10.77
2018-04-17T05:28:56.245Z,10.23
2018-04-17T05:31:26.256Z,10.80
2018-04-17T05:33:54.457Z,11.03
2018-04-17T05:36:23.173Z,11.10
2018-04-17T05:38:51.401Z,12.00
2018-04-17T05:41:19.623Z,11.73
2018-04-17T05:43:48.413Z,10.90
2018-04-17T05:46:16.607Z,11.90
2018-04-17T05:48:44.819Z,12.40
2018-04-17T05:51:13.547Z,11.90
2018-04-17T05:53:41.820Z,11.63
2018-04-17T05:56:11.518Z,12.73
2018-04-17T05:58:41.860Z,12.67
2018-04-17T06:01:20.282Z,11.70
2018-04-17T06:13:37.982Z,12.47
2018-04-17T06:16:07.599Z,12.63
2018-04-17T06:18:39.405Z,12.10
2018-04-17T06:21:07.711Z,11.33
2018-04-17T06:23:38.684Z,12.40
2018-04-17T06:26:07.525Z,11.53
2018-04-17T06:28:39.681Z,10.60
2018-04-17T06:31:09.237Z,11.30
2018-04-17T06:33:38.518Z,12.53
2018-04-17T06:36:06.728Z,12.77
2018-04-17T06:38:34.935Z,12.57
2018-04-17T06:41:03.644Z,11.90
2018-04-17T06:43:31.849Z,13.27
2018-04-17T06:46:00.534Z,13.53
2018-04-17T06:48:29.823Z,13.57
2018-04-17T06:50:58.042Z,13.47
2018-04-17T06:53:26.312Z,12.70
2018-04-17T06:55:54.916Z,12.47
2018-04-17T06:58:23.113Z,12.57
2018-04-17T07:00:51.449Z,11.70
2018-04-17T07:03:19.998Z,12.73
2018-04-17T07:05:48.261Z,13.07
2018-04-17T07:08:16.479Z,12.00
2018-04-17T07:10:45.111Z,17.63
2018-04-17T07:13:13.325Z,12.07
2018-04-17T07:15:41.613Z,12.00
2018-04-17T07:18:10.139Z,11.67
2018-04-17T07:20:38.424Z,12.20
2018-04-17T07:23:06.629Z,10.67
2018-04-17T07:25:35.273Z,11.60
2018-04-17T07:28:03.508Z,11.50
2018-04-17T07:30:31.817Z,12.03
2018-04-17T07:33:00.340Z,10.93
2018-04-17T07:35:28.547Z,12.50
2018-04-17T07:37:56.864Z,12.43
2018-04-17T07:40:25.351Z,11.63
2018-04-17T07:42:53.599Z,11.27
2018-04-17T07:45:21.778Z,10.80
2018-04-17T07:48:01.745Z,11.60
2018-04-17T07:50:30.434Z,12.67
2018-04-17T07:52:58.652Z,12.13
2018-04-17T07:55:26.974Z,12.47
2018-04-17T07:57:55.540Z,11.93
2018-04-17T08:00:23.754Z,12.83
2018-04-17T08:02:52.000Z,12.47
2018-04-17T08:05:20.579Z,13.10
2018-04-17T08:07:48.814Z,13.30
2018-04-17T08:10:17.114Z,12.37
2018-04-17T08:12:45.645Z,12.97
2018-04-17T08:15:13.855Z,13.73
2018-04-17T08:17:42.703Z,11.90
2018-04-17T08:20:11.696Z,12.97
2018-04-17T08:22:40.282Z,12.13
2018-04-17T08:25:08.517Z,14.03
2018-04-17T08:27:36.734Z,12.77
2018-04-17T08:30:05.410Z,11.70
2018-04-17T08:32:33.607Z,13.60
2018-04-17T08:35:01.809Z,13.00
2018-04-17T08:37:30.509Z,13.23
2018-04-17T08:39:58.703Z,13.40
2018-04-17T08:42:26.926Z,13.07
2018-04-17T08:44:55.568Z,13.33
2018-04-17T08:47:23.785Z,13.27
2018-04-17T08:49:52.024Z,14.23
2018-04-17T08:52:20.791Z,13.73
2018-04-17T08:54:49.003Z,14.73
2018-04-17T08:57:17.208Z,14.80
2018-04-17T08:59:45.945Z,13.93
2018-04-17T09:02:14.144Z,15.47
2018-04-17T09:04:42.363Z,15.87
2018-04-17T09:07:10.985Z,15.17
2018-04-17T09:09:39.190Z,15.77
2018-04-17T09:12:07.398Z,17.47
2018-04-17T09:14:36.117Z,17.07
2018-04-17T09:17:04.575Z,16.23
2018-04-17T09:19:33.739Z,14.83
2018-04-17T09:22:02.276Z,14.03
2018-04-17T09:24:30.499Z,14.23
2018-04-17T09:26:58.689Z,13.90
2018-04-17T09:29:27.227Z,13.60
2018-04-17T09:31:55.451Z,13.60
2018-04-17T09:34:23.661Z,14.33
2018-04-17T09:36:51.988Z,13.63
2018-04-17T09:39:20.205Z,13.20
2018-04-17T09:41:48.549Z,14.20
2018-04-17T09:44:17.108Z,14.20
2018-04-17T09:46:46.666Z,14.77
2018-04-17T09:49:16.599Z,13.87
2018-04-17T09:51:44.803Z,14.37
2018-04-17T09:54:13.590Z,14.10
2018-04-17T09:56:42.194Z,14.53
2018-04-17T09:59:10.516Z,15.30
2018-04-17T10:01:38.732Z,14.47
2018-04-17T10:04:07.352Z,15.17
2018-04-17T10:06:35.549Z,14.83
2018-04-17T10:09:03.905Z,14.50
2018-04-17T10:11:32.454Z,14.77
2018-04-17T10:14:00.695Z,17.83
2018-04-17T10:16:28.931Z,19.53
2018-04-17T10:18:57.504Z,16.93
2018-04-17T10:21:25.800Z,16.67
2018-04-17T10:23:54.078Z,17.00
2018-04-17T10:26:22.634Z,14.23
2018-04-17T10:28:50.857Z,14.17
2018-04-17T10:31:19.176Z,14.47
2018-04-17T10:33:47.803Z,14.60
2018-04-17T10:36:16.026Z,14.57
2018-04-17T10:38:44.304Z,14.90
2018-04-17T10:41:12.944Z,14.73
2018-04-17T10:43:41.161Z,15.63
2018-04-17T10:46:09.552Z,14.30
2018-04-17T10:48:38.063Z,14.27
2018-04-17T10:51:06.277Z,14.93
2018-04-17T10:53:34.547Z,13.87
2018-04-17T10:56:03.115Z,11.63
2018-04-17T10:58:32.565Z,13.17
2018-04-17T11:01:00.776Z,13.43
2018-04-17T11:03:28.975Z,14.23
2018-04-17T11:05:57.639Z,12.00
2018-04-17T11:08:25.846Z,12.70
2018-04-17T11:10:54.294Z,13.10
2018-04-17T11:13:22.966Z,11.97
2018-04-17T11:15:51.151Z,11.17
2018-04-17T11:18:19.416Z,11.57
2018-04-17T11:20:47.814Z,11.50
2018-04-17T11:23:16.045Z,11.27
2018-04-17T11:25:44.203Z,10.23
2018-04-17T11:28:12.505Z,10.83
2018-04-17T11:30:40.745Z,9.83
2018-04-17T11:33:10.699Z,10.47
2018-04-17T11:35:39.435Z,10.23
2018-04-17T11:38:08.080Z,10.13
2018-04-17T11:40:36.307Z,9.67
2018-04-17T11:43:04.566Z,9.50
2018-04-17T11:45:33.339Z,11.27
2018-04-17T11:48:01.520Z,11.73
2018-04-17T11:50:29.763Z,13.00
2018-04-17T11:52:58.342Z,13.10
2018-04-17T11:55:26.559Z,13.53
2018-04-17T11:57:54.815Z,11.07
2018-04-17T12:00:23.456Z,16.27
2018-04-17T12:02:51.665Z,11.80
2018-04-17T12:05:19.878Z,9.93
2018-04-17T12:07:48.624Z,9.77
2018-04-17T12:10:16.842Z,10.07
2018-04-17T12:12:45.073Z,10.73
2018-04-17T12:15:13.778Z,11.23
2018-04-17T12:17:41.983Z,12.40
2018-04-17T12:20:10.192Z,12.47
2018-04-17T12:22:38.822Z,12.50
2018-04-17T12:25:07.033Z,15.00
2018-04-17T12:27:36.374Z,13.83
2018-04-17T12:30:04.990Z,13.03
2018-04-17T12:32:33.229Z,12.97
2018-04-17T12:35:01.447Z,13.93
2018-04-17T12:37:30.093Z,14.97
2018-04-17T12:39:58.372Z,13.03
2018-04-17T12:42:26.944Z,12.37
2018-04-17T12:44:55.538Z,14.90
2018-04-17T12:47:24.155Z,11.70
2018-04-17T12:49:52.356Z,12.03
2018-04-17T12:52:20.676Z,11.67
2018-04-17T12:54:49.335Z,10.83
2018-04-17T12:57:17.539Z,11.10
2018-04-17T12:59:45.750Z,14.03
2018-04-17T13:02:14.493Z,13.73
2018-04-17T13:04:42.748Z,15.87
2018-04-17T13:07:11.180Z,13.37
2018-04-17T13:09:39.643Z,13.60
2018-04-17T13:12:07.853Z,12.77
2018-04-17T13:14:36.103Z,14.87
2018-04-17T13:17:05.292Z,12.43
2018-04-17T13:19:33.537Z,14.30
2018-04-17T13:22:01.916Z,14.97
2018-04-17T13:24:30.347Z,12.23
2018-04-17T13:26:58.608Z,15.10
2018-04-17T13:29:26.896Z,12.27
2018-04-17T13:31:55.518Z,13.60
2018-04-17T13:34:24.979Z,13.17
2018-04-17T13:36:53.170Z,13.13
2018-04-17T13:39:26.475Z,11.80
2018-04-17T13:41:55.112Z,12.33
2018-04-17T13:44:24.011Z,12.50
2018-04-17T13:46:52.269Z,12.67
2018-04-17T13:49:20.830Z,12.20
2018-04-17T13:51:49.056Z,12.17
2018-04-17T13:54:17.293Z,10.57
2018-04-17T13:56:45.972Z,9.57
2018-04-17T13:59:14.199Z,10.20
2018-04-17T14:01:42.435Z,11.97
2018-04-17T14:04:10.991Z,12.43
2018-04-17T14:06:39.205Z,9.82
2018-04-17T14:09:07.642Z,9.45
2018-04-17T14:11:36.163Z,11.00
2018-04-17T14:14:04.392Z,11.40
2018-04-17T14:16:32.656Z,10.45
2018-04-17T14:19:01.280Z,16.15
2018-04-17T14:21:29.514Z,13.57
2018-04-17T14:23:57.757Z,12.40
2018-04-17T14:26:26.271Z,11.70
2018-04-17T14:28:54.486Z,11.00
2018-04-17T14:31:22.951Z,12.27
2018-04-17T14:33:51.426Z,12.18
2018-04-17T14:36:19.651Z,11.80
2018-04-17T14:38:48.090Z,11.68
2018-04-17T14:41:16.558Z,13.15
2018-04-17T14:43:44.792Z,11.70
2018-04-17T14:46:13.115Z,12.50
2018-04-17T14:48:41.592Z,12.43
2018-04-17T14:51:09.787Z,12.15
2018-04-17T14:53:38.142Z,11.52
2018-04-17T14:56:06.740Z,10.85
2018-04-17T14:58:34.960Z,13.35
2018-04-17T15:01:03.326Z,11.90
2018-04-17T15:03:31.889Z,11.18
2018-04-17T15:06:00.104Z,11.52
2018-04-17T15:08:28.378Z,12.70
2018-04-17T15:10:57.125Z,13.13
2018-04-17T15:13:25.340Z,10.93
2018-04-17T15:15:53.649Z,12.37
2018-04-17T15:18:22.218Z,10.70
2018-04-17T15:20:50.448Z,10.10
2018-04-17T15:23:18.791Z,10.00
2018-04-17T15:25:47.321Z,11.00
2018-04-17T15:28:15.538Z,10.70
2018-04-17T15:30:43.953Z,9.53
2018-04-17T15:33:12.860Z,11.87
2018-04-17T15:35:41.568Z,9.37
2018-04-17T15:38:09.773Z,9.97
2018-04-17T15:40:38.559Z,9.80
2018-04-17T15:43:07.532Z,8.53
2018-04-17T15:45:35.783Z,7.60
2018-04-17T15:48:04.639Z,7.30
2018-04-17T15:50:33.817Z,7.43
2018-04-17T15:53:03.141Z,9.50
2018-04-17T15:55:31.377Z,8.93
2018-04-17T15:57:59.575Z,10.03
2018-04-17T16:00:28.463Z,11.97
2018-04-17T16:02:57.482Z,13.07
2018-04-17T16:05:26.400Z,8.43
2018-04-17T16:07:54.569Z,8.67
2018-04-17T16:10:23.507Z,8.83
2018-04-17T16:12:52.500Z,11.83
2018-04-17T16:15:20.677Z,11.30
2018-04-17T16:17:49.499Z,9.27
2018-04-17T16:20:18.461Z,9.83
2018-04-17T16:22:47.610Z,10.73
2018-04-17T16:25:15.820Z,7.17
2018-04-17T16:27:44.619Z,10.43
2018-04-17T16:30:13.883Z,11.90
2018-04-17T16:32:42.605Z,11.07
2018-04-17T16:35:10.776Z,11.63
2018-04-17T16:37:39.005Z,11.10
2018-04-17T16:40:07.604Z,10.90
2018-04-17T16:42:36.702Z,9.77
2018-04-17T16:45:04.908Z,9.63
2018-04-17T16:47:33.611Z,10.13
2018-04-17T16:50:02.076Z,14.57
2018-04-17T16:52:30.309Z,11.63
2018-04-17T16:54:59.077Z,10.17
2018-04-17T16:57:27.774Z,10.10
2018-04-17T16:59:55.993Z,9.70
2018-04-17T17:02:24.790Z,9.33
2018-04-17T17:04:53.488Z,10.77
2018-04-17T17:07:21.722Z,10.53
2018-04-17T17:09:50.000Z,10.87
2018-04-17T17:12:18.602Z,10.63
2018-04-17T17:14:46.805Z,10.90
2018-04-17T17:17:15.233Z,9.70
2018-04-17T17:19:43.847Z,9.00
2018-04-17T17:22:12.045Z,9.53
2018-04-17T17:24:40.384Z,9.37
2018-04-17T17:27:09.003Z,9.60
2018-04-17T17:29:38.411Z,9.83
2018-04-17T17:32:06.619Z,9.00
2018-04-17T17:34:35.505Z,9.63
2018-04-17T17:37:04.972Z,10.53
2018-04-17T17:39:33.555Z,9.00
2018-04-17T17:42:01.772Z,8.43
2018-04-17T17:44:30.053Z,9.27
2018-04-17T17:46:58.796Z,9.90
2018-04-17T17:49:26.990Z,8.67
2018-04-17T17:51:55.251Z,9.00
2018-04-17T17:54:23.938Z,8.10
2018-04-17T17:56:52.184Z,8.27
2018-04-17T17:59:20.398Z,8.23
2018-04-17T18:01:49.197Z,7.97
2018-04-17T18:04:17.406Z,7.60
2018-04-17T18:06:45.645Z,7.37
2018-04-17T18:09:14.238Z,7.50
2018-04-17T18:11:42.498Z,8.80
2018-04-17T18:14:10.756Z,7.70
2018-04-17T18:16:39.427Z,8.30
2018-04-17T18:19:07.866Z,8.00
2018-04-17T18:21:36.057Z,8.57
2018-04-17T18:24:04.668Z,8.57
2018-04-17T18:26:35.381Z,10.00
2018-04-17T18:29:03.827Z,8.67
2018-04-17T18:31:32.452Z,9.73
2018-04-17T18:34:01.433Z,10.63
2018-04-17T18:36:29.652Z,9.60
2018-04-17T18:38:57.918Z,12.40
2018-04-17T18:41:27.593Z,9.60
2018-04-17T18:43:55.846Z,9.83
2018-04-17T18:46:24.065Z,9.97
2018-04-17T18:48:52.729Z,9.67
2018-04-17T18:51:20.988Z,9.60
2018-04-17T18:53:49.535Z,9.60
2018-04-17T18:56:19.088Z,14.43
2018-04-17T18:58:47.890Z,14.27
2018-04-17T19:01:16.125Z,9.77
2018-04-17T19:03:44.333Z,10.20
2018-04-17T19:06:13.217Z,10.13
2018-04-17T19:08:42.143Z,11.30
2018-04-17T19:11:10.621Z,10.87
2018-04-17T19:13:39.318Z,11.70
2018-04-17T19:16:07.978Z,12.13
2018-04-17T19:18:37.294Z,12.80
2018-04-17T19:21:05.501Z,10.00
2018-04-17T19:23:33.772Z,10.33
2018-04-17T19:26:02.538Z,10.93
2018-04-17T19:28:30.779Z,9.60
2018-04-17T19:30:59.547Z,9.77
2018-04-17T19:33:28.173Z,10.83
2018-04-17T19:35:57.043Z,13.23
2018-04-17T19:38:25.255Z,17.27
2018-04-17T19:40:54.515Z,14.23
2018-04-17T19:43:23.390Z,13.30
2018-04-17T19:45:51.585Z,11.50
2018-04-17T19:48:19.954Z,11.23
2018-04-17T19:50:48.542Z,11.63
2018-04-17T19:53:16.881Z,12.40
2018-04-17T19:55:45.121Z,14.07
2018-04-17T19:58:15.481Z,21.20
2018-04-17T20:00:44.420Z,13.23
2018-04-17T20:03:13.730Z,12.67
2018-04-17T20:05:41.967Z,12.73
2018-04-17T20:08:11.076Z,11.03
2018-04-17T20:10:39.808Z,12.50
2018-04-17T20:13:09.113Z,11.90
2018-04-17T20:15:37.362Z,12.90
2018-04-17T20:18:05.613Z,12.93
2018-04-17T20:20:34.287Z,15.13
2018-04-17T20:23:02.559Z,12.33
2018-04-17T20:25:30.832Z,12.00
2018-04-17T20:27:59.367Z,12.40
2018-04-17T20:30:27.608Z,11.93
2018-04-17T20:32:55.923Z,11.50
2018-04-17T20:35:24.502Z,11.17
2018-04-17T20:37:52.727Z,11.80
2018-04-17T20:40:21.007Z,11.57
2018-04-17T20:42:49.753Z,11.10
2018-04-17T20:45:17.987Z,10.73
2018-04-17T20:47:46.185Z,11.20
2018-04-17T20:50:14.735Z,10.07
2018-04-17T20:52:43.816Z,10.83
2018-04-17T20:55:11.999Z,11.30
2018-04-17T20:57:40.625Z,10.73
2018-04-17T21:00:09.341Z,10.73
2018-04-17T21:02:37.547Z,10.70
2018-04-17T21:05:05.753Z,9.97
2018-04-17T21:07:34.530Z,11.23
2018-04-17T21:10:02.750Z,11.40
2018-04-17T21:12:30.985Z,11.10
2018-04-17T21:14:59.680Z,11.97
2018-04-17T21:17:27.909Z,11.27
2018-04-17T21:19:56.179Z,11.50
2018-04-17T21:22:25.010Z,11.13
2018-04-17T21:24:53.213Z,12.17
2018-04-17T21:27:21.426Z,10.83
2018-04-17T21:29:50.124Z,11.47
2018-04-17T21:32:18.316Z,10.80
2018-04-17T21:34:47.415Z,11.33
2018-04-17T21:37:15.834Z,12.50
2018-04-17T21:39:44.075Z,13.03
2018-04-17T21:42:12.442Z,13.00
2018-04-17T21:44:40.992Z,12.90
2018-04-17T21:47:09.325Z,13.63
2018-04-17T21:49:37.635Z,13.20
2018-04-17T21:52:06.212Z,14.27
2018-04-17T21:54:34.447Z,14.90
2018-04-17T21:57:02.724Z,14.00
2018-04-17T21:59:31.341Z,14.30
2018-04-17T22:01:59.563Z,14.30
2018-04-17T22:04:28.149Z,13.37
2018-04-17T22:06:56.567Z,13.73
2018-04-17T22:09:24.779Z,14.47
2018-04-17T22:11:53.099Z,13.67
2018-04-17T22:14:21.737Z,13.07
2018-04-17T22:16:49.986Z,14.43
2018-04-17T22:19:18.401Z,13.63
2018-04-17T22:21:46.928Z,13.43
2018-04-17T22:24:15.144Z,13.00
2018-04-17T22:26:43.538Z,13.43
2018-04-17T22:29:12.562Z,13.50
2018-04-17T22:31:41.784Z,12.47
2018-04-17T22:34:09.996Z,13.67
2018-04-17T22:36:38.195Z,13.27
2018-04-17T22:39:06.884Z,12.87
2018-04-17T22:41:35.071Z,13.90
2018-04-17T22:44:03.288Z,13.07
2018-04-17T22:46:32.646Z,13.33
2018-04-17T22:49:00.842Z,12.80
2018-04-17T22:51:29.455Z,13.30
2018-04-17T22:53:58.102Z,13.40
2018-04-17T22:56:27.154Z,13.20
2018-04-17T22:58:55.365Z,12.40
2018-04-17T23:01:24.357Z,14.57
2018-04-17T23:03:52.941Z,13.57
2018-04-17T23:06:22.475Z,13.93
2018-04-17T23:08:50.643Z,13.30
2018-04-17T23:11:18.898Z,14.73
2018-04-17T23:13:47.699Z,13.30
2018-04-17T23:16:15.915Z,14.20
2018-04-17T23:18:44.133Z,14.53
2018-04-17T23:21:12.897Z,14.70
2018-04-17T23:23:42.013Z,14.87
2018-04-17T23:26:10.229Z,16.67
2018-04-17T23:28:38.766Z,15.70
2018-04-17T23:31:07.017Z,14.80
2018-04-17T23:33:35.292Z,15.13
2018-04-17T23:36:03.863Z,15.47
2018-04-17T23:38:32.094Z,16.07
2018-04-17T23:41:00.330Z,14.60
2018-04-17T23:43:29.855Z,14.80
2018-04-17T23:45:58.538Z,14.77
2018-04-17T23:48:26.749Z,14.77
2018-04-17T23:50:54.945Z,14.87
2018-04-17T23:53:23.666Z,14.37
2018-04-17T23:55:51.871Z,15.03
2018-04-17T23:58:20.534Z,14.50
